CheckWX is a tool to help pilots better visualize weather data.  It is not intended as a substitute for an official pre-flight weather briefing.

22:40:18 UTC

KFXY METAR
Forest City Municipal Airport
Forest City, Iowa, USA
Current

5 mins ago

KFXY 262235Z AUTO 18012KT 10SM BKN031 11/03 A3024 RMK AO2
Observed
Mar-26 @ 22:35 UTC
Wind
  • 180° at 12 KTS
Visibility
10 SM
Flight Rules
VFR
Cloud Levels
  • Broken at 3,100' AGL
Temperature
11°C / 52°F
Dewpoint
C / 37°F
Humidity
58%
Altimeter
30.24" Hg
Pressure
1024.02 hPa
Previous

25 mins ago

KFXY 262215Z AUTO 18012KT 10SM OVC031 11/03 A3025 RMK AO2
Observed
Mar-26 @ 22:15 UTC
Wind
  • 180° at 12 KTS
Visibility
10 SM
Flight Rules
VFR
Cloud Levels
  • Overcast at 3,100' AGL
Temperature
11°C / 52°F
Dewpoint
C / 37°F
Humidity
58%
Altimeter
30.25" Hg
Pressure
1024.42 hPa
Previous

45 mins ago

KFXY 262155Z AUTO 18009G14KT 10SM OVC031 11/03 A3026 RMK AO2
Observed
Mar-26 @ 21:55 UTC
Wind
  • 180° at 9 KTS
  • Gusting to 14 KTS
Visibility
10 SM
Flight Rules
VFR
Cloud Levels
  • Overcast at 3,100' AGL
Temperature
11°C / 52°F
Dewpoint
C / 37°F
Humidity
58%
Altimeter
30.26" Hg
Pressure
1024.72 hPa